This is the latest recevied weather packets stored in our database for station/object EA5SW-14. If no packets are shown the sender has not sent any weather packets the latest 10 day(s).
| Time | Temp. | Humidity | Pressure | Rain* | Wind** | Luminosity | Snow |
|---|---|---|---|---|---|---|---|
| 1777139700 | 19.44° C | 40% | 1011.3 hPa | 0 mm | - | - | - |
| 1777137283 | 20.56° C | 46% | 1011.3 hPa | 0 mm | - | - | - |
| 1777136699 | 20.56° C | 47% | 1011.3 hPa | 0 mm | - | - | - |
| 1777127071 | 21.11° C | 45% | 1011.5 hPa | 0 mm | - | - | - |
| 1777126467 | 20.56° C | 50% | 1011.5 hPa | 0 mm | - | - | - |
| 1777125862 | 20.56° C | 49% | 1011.6 hPa | 0 mm | - | - | - |
| 1777119276 | 19.44° C | 52% | 1012.1 hPa | 0 mm | - | - | - |
| 1777118068 | 19.44° C | 50% | 1012.2 hPa | 0 mm | - | - | - |
| 1777115731 | 17.78° C | 63% | 1012.3 hPa | 0 mm | - | - | - |
| 1777112105 | 15° C | 75% | 1012.9 hPa | 0 mm | - | - | - |
| 1777111481 | 15° C | 76% | 1012.9 hPa | 0 mm | - | - | - |
| 1777110877 | 14.44° C | 73% | 1013 hPa | 0 mm | - | - | - |
| 1777109064 | 12.78° C | 79% | 1013.2 hPa | 0.25 mm | - | - | - |
| 1777107311 | 11.11° C | 84% | 1013.3 hPa | 1.02 mm | - | - | - |
| 1777106122 | 11.11° C | 85% | 1013.1 hPa | 1.02 mm | - | - | - |
| 1777103685 | 11.11° C | 87% | 1013 hPa | 0 mm | - | - | - |
| 1777103101 | 11.11° C | 87% | 1013.1 hPa | 0 mm | - | - | - |
| 1777101267 | 10.56° C | 88% | 1012.9 hPa | 0 mm | - | - | - |
| 1777094096 | 10.56° C | 91% | 1012.6 hPa | 1.02 mm | - | - | - |
| 1777092868 | 10.56° C | 90% | 1012.4 hPa | 1.02 mm | - | - | - |
| 1777092263 | 10.56° C | 91% | 1012.4 hPa | 1.02 mm | - | - | - |
| 1777091115 | 11.11° C | 89% | 1012.3 hPa | 0.25 mm | - | - | - |
| 1777083864 | 11.67° C | 92% | 1012.3 hPa | 0 mm | - | - | - |
| 1777080903 | 12.22° C | 92% | 1012.4 hPa | 0 mm | - | - | - |
* Rain latest hour (hover to see other rain measurements)
** Current wind speed in m/s (hover to see current wind gust speed)